createdAt,value
2017-08-26T00:02:17.420Z,18.90
2017-08-26T00:07:19.116Z,18.80
2017-08-26T00:12:22.800Z,18.70
2017-08-26T00:17:24.473Z,18.90
2017-08-26T00:22:26.185Z,18.90
2017-08-26T00:27:28.881Z,18.90
2017-08-26T00:32:30.761Z,18.90
2017-08-26T00:37:32.436Z,19.00
2017-08-26T00:42:35.135Z,18.90
2017-08-26T00:47:36.812Z,18.80
2017-08-26T00:52:38.676Z,18.90
2017-08-26T00:57:40.360Z,18.90
2017-08-26T01:02:42.051Z,18.90
2017-08-26T01:07:44.033Z,18.90
2017-08-26T01:12:45.703Z,18.80
2017-08-26T01:17:49.424Z,18.80
2017-08-26T01:22:52.302Z,18.60
2017-08-26T01:27:53.999Z,18.70
2017-08-26T01:32:56.169Z,18.60
2017-08-26T01:37:57.958Z,18.50
2017-08-26T01:42:59.635Z,18.50
2017-08-26T01:48:01.310Z,18.50
2017-08-26T01:53:03.079Z,18.30
2017-08-26T01:58:06.005Z,18.20
2017-08-26T02:03:10.219Z,18.30
2017-08-26T02:08:11.966Z,18.20
2017-08-26T02:13:13.660Z,18.30
2017-08-26T02:18:15.334Z,18.30
2017-08-26T02:23:16.981Z,18.30
2017-08-26T02:28:20.733Z,18.30
2017-08-26T02:33:23.938Z,18.20
2017-08-26T02:38:40.549Z,18.10
2017-08-26T02:43:57.409Z,18.20
2017-08-26T02:49:13.862Z,18.20
2017-08-26T02:54:30.482Z,18.10
2017-08-26T02:59:47.010Z,18.00
2017-08-26T03:05:03.489Z,18.10
2017-08-26T03:10:19.912Z,18.10
2017-08-26T03:15:36.259Z,18.10
2017-08-26T03:20:38.778Z,18.20
2017-08-26T03:25:40.397Z,18.00
2017-08-26T03:30:42.107Z,18.00
2017-08-26T03:35:43.865Z,18.00
2017-08-26T03:40:45.571Z,18.00
2017-08-26T03:45:47.201Z,17.90
2017-08-26T03:50:48.943Z,17.80
2017-08-26T03:55:50.612Z,17.60
2017-08-26T04:00:52.283Z,17.60
2017-08-26T04:05:53.955Z,17.50
2017-08-26T04:10:55.630Z,17.50
2017-08-26T04:15:57.276Z,17.50
2017-08-26T04:20:58.952Z,17.50
2017-08-26T04:26:00.709Z,17.40
2017-08-26T04:31:02.625Z,17.50
2017-08-26T04:36:04.273Z,17.50
2017-08-26T04:41:05.973Z,17.50
2017-08-26T04:46:09.240Z,17.60
2017-08-26T04:51:12.901Z,17.60
2017-08-26T04:56:14.528Z,17.70
2017-08-26T05:01:16.246Z,17.80
2017-08-26T05:06:18.993Z,17.70
2017-08-26T05:11:20.820Z,17.70
2017-08-26T05:16:23.918Z,17.80
2017-08-26T05:21:25.552Z,17.70
2017-08-26T05:26:27.940Z,17.70
2017-08-26T05:31:30.583Z,17.60
2017-08-26T05:36:32.815Z,17.70
2017-08-26T05:41:34.522Z,17.80
2017-08-26T05:46:36.217Z,18.00
2017-08-26T05:51:38.196Z,18.20
2017-08-26T05:56:39.949Z,18.60
2017-08-26T06:01:42.900Z,18.80
2017-08-26T06:06:44.633Z,19.00
2017-08-26T06:11:46.425Z,19.00
2017-08-26T06:16:48.300Z,18.90
2017-08-26T06:21:49.956Z,18.80
2017-08-26T06:26:51.617Z,18.60
2017-08-26T06:31:53.398Z,18.50
2017-08-26T06:36:56.089Z,18.60
2017-08-26T06:41:58.356Z,18.50
2017-08-26T06:47:00.162Z,18.60
2017-08-26T06:52:01.833Z,18.80
2017-08-26T06:57:04.633Z,18.70
2017-08-26T07:02:07.952Z,18.80
2017-08-26T07:07:10.657Z,18.80
2017-08-26T07:12:13.356Z,18.70
2017-08-26T07:17:14.952Z,18.80
2017-08-26T07:22:16.657Z,18.80
2017-08-26T07:27:18.305Z,18.90
2017-08-26T07:32:21.040Z,19.10
2017-08-26T07:37:22.742Z,19.10
2017-08-26T07:42:24.417Z,19.20
2017-08-26T07:47:26.209Z,19.40
2017-08-26T07:52:27.847Z,19.40
2017-08-26T07:57:29.519Z,19.70
2017-08-26T08:02:31.194Z,19.80
2017-08-26T08:07:32.865Z,20.20
2017-08-26T08:12:34.541Z,20.20
2017-08-26T08:17:36.816Z,20.50
2017-08-26T08:22:38.525Z,20.60
2017-08-26T08:27:40.275Z,20.80
2017-08-26T08:32:41.972Z,21.20
2017-08-26T08:37:43.646Z,21.80
2017-08-26T08:42:45.319Z,22.30
2017-08-26T08:47:46.961Z,23.00
2017-08-26T08:52:48.666Z,23.30
2017-08-26T08:57:50.308Z,23.50
2017-08-26T09:02:52.008Z,24.00
2017-08-26T09:07:54.244Z,24.20
2017-08-26T09:12:55.974Z,24.00
2017-08-26T09:17:57.641Z,24.80
2017-08-26T09:22:59.315Z,24.00
2017-08-26T09:28:00.987Z,24.60
2017-08-26T09:33:02.644Z,24.90
2017-08-26T09:38:04.437Z,25.10
2017-08-26T09:43:06.045Z,25.40
2017-08-26T09:48:08.805Z,25.50
2017-08-26T09:53:10.424Z,25.90
2017-08-26T09:58:12.674Z,25.80
2017-08-26T10:03:14.382Z,25.80
2017-08-26T10:08:16.182Z,25.60
2017-08-26T10:13:17.857Z,26.10
2017-08-26T10:18:19.528Z,26.10
2017-08-26T10:23:21.411Z,25.90
2017-08-26T10:28:24.030Z,26.20
2017-08-26T10:33:25.785Z,26.20
2017-08-26T10:38:27.468Z,26.30
2017-08-26T10:43:29.129Z,26.20
2017-08-26T10:48:30.852Z,26.10
2017-08-26T10:53:32.437Z,26.40
2017-08-26T10:58:34.233Z,26.70
2017-08-26T11:03:35.867Z,26.70
2017-08-26T11:08:37.561Z,26.60
2017-08-26T11:13:39.337Z,26.90
2017-08-26T11:18:41.106Z,26.80
2017-08-26T11:23:42.771Z,27.20
2017-08-26T11:28:44.464Z,27.10
2017-08-26T11:33:46.117Z,27.10
2017-08-26T11:38:48.817Z,27.20
2017-08-26T11:43:50.480Z,27.30
2017-08-26T11:48:52.152Z,27.40
2017-08-26T11:53:53.842Z,27.60
2017-08-26T11:58:55.512Z,27.50
2017-08-26T12:03:57.184Z,27.60
2017-08-26T12:08:58.953Z,27.50
2017-08-26T12:14:00.576Z,27.70
2017-08-26T12:19:02.299Z,27.90
2017-08-26T12:24:04.005Z,28.00
2017-08-26T12:29:05.760Z,28.00
2017-08-26T12:34:07.705Z,28.20
2017-08-26T12:39:09.536Z,28.20
2017-08-26T12:44:12.314Z,28.40
2017-08-26T12:49:13.977Z,28.40
2017-08-26T12:54:15.658Z,28.40
2017-08-26T12:59:17.324Z,28.40
2017-08-26T13:04:19.149Z,27.70
2017-08-26T13:09:20.876Z,27.40
2017-08-26T13:14:22.658Z,27.90
2017-08-26T13:19:24.324Z,28.30
2017-08-26T13:24:25.989Z,28.40
2017-08-26T13:29:27.677Z,28.60
2017-08-26T13:34:29.368Z,28.90
2017-08-26T13:39:31.693Z,28.70
2017-08-26T13:44:33.367Z,28.70
2017-08-26T13:49:35.008Z,28.90
2017-08-26T13:54:36.688Z,28.80
2017-08-26T13:59:39.049Z,28.80
2017-08-26T14:04:40.817Z,28.90
2017-08-26T14:09:42.549Z,28.90
2017-08-26T14:14:44.187Z,28.70
2017-08-26T14:19:45.892Z,28.60
2017-08-26T14:24:47.565Z,28.50
2017-08-26T14:29:49.213Z,28.60
2017-08-26T14:34:50.911Z,28.70
2017-08-26T14:39:52.561Z,28.70
2017-08-26T14:44:54.257Z,28.80
2017-08-26T14:49:55.953Z,28.70
2017-08-26T14:54:57.647Z,28.80
2017-08-26T14:59:59.457Z,28.90
2017-08-26T15:05:01.152Z,28.70
2017-08-26T15:10:02.828Z,28.70
2017-08-26T15:15:04.499Z,28.90
2017-08-26T15:20:06.098Z,28.60
2017-08-26T15:25:07.816Z,28.60
2017-08-26T15:30:09.517Z,28.60
2017-08-26T15:35:11.165Z,28.40
2017-08-26T15:40:12.862Z,28.40
2017-08-26T15:45:14.609Z,28.40
2017-08-26T15:50:17.333Z,28.20
2017-08-26T15:55:19.054Z,28.10
2017-08-26T16:00:20.753Z,28.00
2017-08-26T16:05:22.433Z,28.00
2017-08-26T16:10:24.107Z,27.90
2017-08-26T16:15:25.800Z,27.90
2017-08-26T16:20:27.474Z,27.80
2017-08-26T16:25:29.169Z,27.60
2017-08-26T16:30:31.412Z,27.60
2017-08-26T16:35:33.178Z,27.50
2017-08-26T16:40:34.882Z,27.40
2017-08-26T16:45:36.502Z,27.40
2017-08-26T16:50:38.199Z,27.30
2017-08-26T16:55:40.750Z,27.20
2017-08-26T17:00:42.493Z,27.20
2017-08-26T17:05:44.171Z,27.20
2017-08-26T17:10:45.840Z,27.20
2017-08-26T17:15:47.512Z,27.10
2017-08-26T17:20:49.394Z,27.10
2017-08-26T17:25:51.165Z,27.10
2017-08-26T17:30:52.816Z,27.00
2017-08-26T17:35:54.498Z,27.00
2017-08-26T17:40:56.118Z,26.80
2017-08-26T17:45:57.856Z,26.60
2017-08-26T17:50:59.505Z,26.40
2017-08-26T17:56:01.249Z,26.20
2017-08-26T18:01:03.052Z,26.10
2017-08-26T18:06:04.752Z,25.90
2017-08-26T18:11:06.384Z,25.90
2017-08-26T18:16:08.033Z,25.60
2017-08-26T18:21:09.770Z,25.40
2017-08-26T18:26:11.492Z,25.30
2017-08-26T18:31:13.193Z,25.10
2017-08-26T18:36:15.198Z,25.00
2017-08-26T18:41:16.945Z,24.90
2017-08-26T18:46:19.405Z,24.70
2017-08-26T18:51:21.172Z,24.60
2017-08-26T18:56:22.890Z,24.50
2017-08-26T19:01:25.272Z,24.30
2017-08-26T19:06:27.460Z,24.30
2017-08-26T19:11:30.185Z,24.20
2017-08-26T19:16:32.949Z,24.10
2017-08-26T19:21:42.122Z,23.90
2017-08-26T19:26:44.838Z,23.80
2017-08-26T19:31:46.552Z,23.80
2017-08-26T19:36:48.381Z,23.60
2017-08-26T19:41:50.051Z,23.70
2017-08-26T19:46:51.728Z,23.40
2017-08-26T19:51:53.328Z,23.40
2017-08-26T19:56:55.024Z,23.20
2017-08-26T20:01:56.781Z,23.10
2017-08-26T20:06:58.360Z,22.90
2017-08-26T20:12:00.037Z,23.00
2017-08-26T20:17:01.744Z,22.80
2017-08-26T20:22:03.452Z,22.70
2017-08-26T20:27:05.069Z,22.70
2017-08-26T20:32:06.833Z,22.60
2017-08-26T20:37:08.671Z,22.60
2017-08-26T20:42:10.297Z,22.50
2017-08-26T20:47:11.960Z,22.30
2017-08-26T20:52:13.633Z,22.30
2017-08-26T20:57:15.345Z,22.20
2017-08-26T21:02:17.920Z,22.10
2017-08-26T21:07:19.719Z,22.00
2017-08-26T21:12:21.464Z,21.90
2017-08-26T21:17:23.137Z,21.80
2017-08-26T21:22:24.818Z,21.70
2017-08-26T21:27:26.511Z,21.80
2017-08-26T21:32:28.286Z,21.70
2017-08-26T21:37:30.063Z,21.70
2017-08-26T21:42:31.708Z,21.70
2017-08-26T21:47:33.385Z,21.60
2017-08-26T21:52:35.030Z,21.60
2017-08-26T21:57:36.737Z,21.40
2017-08-26T22:02:38.401Z,21.60
2017-08-26T22:07:41.321Z,21.60
2017-08-26T22:12:43.631Z,21.60
2017-08-26T22:17:45.392Z,21.40
2017-08-26T22:22:47.004Z,21.40
2017-08-26T22:27:48.737Z,21.20
2017-08-26T22:32:52.058Z,21.20
2017-08-26T22:37:53.689Z,21.40
2017-08-26T22:42:55.363Z,21.30
2017-08-26T22:47:57.028Z,21.20
2017-08-26T22:52:58.814Z,21.10
2017-08-26T22:58:00.485Z,21.00
2017-08-26T23:03:02.258Z,21.00
2017-08-26T23:08:03.933Z,21.10
2017-08-26T23:13:05.632Z,21.00
2017-08-26T23:18:07.256Z,21.00
2017-08-26T23:23:08.977Z,21.00
2017-08-26T23:28:10.729Z,20.80
2017-08-26T23:33:12.426Z,20.80
2017-08-26T23:38:14.098Z,20.80
2017-08-26T23:43:15.828Z,20.70
2017-08-26T23:48:18.569Z,20.60
2017-08-26T23:53:21.351Z,20.50
2017-08-26T23:58:23.014Z,20.60
